createdAt,value
2023-04-26T00:01:55.149Z,8.00
2023-04-26T00:04:21.941Z,7.90
2023-04-26T00:06:49.394Z,7.80
2023-04-26T00:09:16.457Z,7.80
2023-04-26T00:11:43.087Z,7.50
2023-04-26T00:14:09.672Z,7.60
2023-04-26T00:16:36.391Z,7.50
2023-04-26T00:19:04.057Z,7.50
2023-04-26T00:21:31.403Z,7.50
2023-04-26T00:23:58.458Z,7.50
2023-04-26T00:26:25.120Z,7.50
2023-04-26T00:28:51.944Z,7.60
2023-04-26T00:31:18.790Z,7.60
2023-04-26T00:33:45.458Z,7.60
2023-04-26T00:36:12.876Z,7.50
2023-04-26T00:38:39.508Z,7.50
2023-04-26T00:41:06.120Z,7.20
2023-04-26T00:43:32.674Z,7.20
2023-04-26T00:45:59.352Z,7.20
2023-04-26T00:48:26.265Z,7.20
2023-04-26T00:50:52.885Z,7.20
2023-04-26T00:53:20.580Z,7.30
2023-04-26T00:55:47.686Z,7.00
2023-04-26T00:58:14.420Z,7.20
2023-04-26T01:00:41.141Z,7.10
2023-04-26T01:03:07.938Z,7.10
2023-04-26T01:05:36.652Z,7.00
2023-04-26T01:08:04.703Z,7.00
2023-04-26T01:10:35.268Z,7.10
2023-04-26T01:13:03.401Z,7.00
2023-04-26T01:15:33.497Z,7.00
2023-04-26T01:18:00.305Z,7.10
2023-04-26T01:20:27.090Z,7.10
2023-04-26T01:22:53.668Z,7.00
2023-04-26T01:25:21.105Z,7.00
2023-04-26T01:27:47.726Z,6.90
2023-04-26T01:30:14.390Z,6.90
2023-04-26T01:32:41.100Z,6.80
2023-04-26T01:35:07.822Z,6.70
2023-04-26T01:37:34.521Z,6.80
2023-04-26T01:40:01.204Z,6.70
2023-04-26T01:42:27.831Z,6.70
2023-04-26T01:44:54.385Z,6.80
2023-04-26T01:47:21.448Z,7.00
2023-04-26T01:49:48.082Z,7.10
2023-04-26T01:52:14.718Z,6.90
2023-04-26T01:54:41.287Z,6.80
2023-04-26T01:57:07.961Z,6.70
2023-04-26T01:59:34.553Z,6.70
2023-04-26T02:02:01.305Z,6.80
2023-04-26T02:04:28.213Z,6.80
2023-04-26T02:06:54.861Z,6.80
2023-04-26T02:09:21.490Z,6.60
2023-04-26T02:11:48.120Z,6.40
2023-04-26T02:14:15.669Z,6.40
2023-04-26T02:16:42.352Z,6.30
2023-04-26T02:19:10.850Z,6.60
2023-04-26T02:21:50.353Z,6.70
2023-04-26T02:24:16.948Z,6.60
2023-04-26T02:26:43.551Z,6.50
2023-04-26T02:29:10.118Z,6.60
2023-04-26T02:31:36.800Z,6.80
2023-04-26T02:34:03.411Z,6.60
2023-04-26T02:36:33.028Z,6.50
2023-04-26T02:38:59.993Z,6.50
2023-04-26T02:41:26.676Z,6.70
2023-04-26T02:43:53.205Z,6.80
2023-04-26T02:46:19.809Z,6.50
2023-04-26T02:48:46.635Z,6.40
2023-04-26T02:51:13.955Z,6.40
2023-04-26T02:53:40.659Z,6.50
2023-04-26T02:56:07.404Z,6.40
2023-04-26T02:58:33.953Z,6.30
2023-04-26T03:01:01.799Z,6.20
2023-04-26T03:03:28.929Z,6.30
2023-04-26T03:05:55.809Z,6.10
2023-04-26T03:08:22.738Z,6.20
2023-04-26T03:10:49.354Z,6.30
2023-04-26T03:13:15.973Z,6.40
2023-04-26T03:15:48.754Z,6.30
2023-04-26T03:18:15.576Z,6.30
2023-04-26T03:20:42.212Z,6.40
2023-04-26T03:23:08.907Z,6.30
2023-04-26T03:25:35.587Z,6.20
2023-04-26T03:28:02.184Z,6.10
2023-04-26T03:30:28.820Z,6.20
2023-04-26T03:32:55.785Z,6.10
2023-04-26T03:35:22.427Z,6.00
2023-04-26T03:37:50.743Z,5.90
2023-04-26T03:40:18.330Z,6.10
2023-04-26T03:42:44.996Z,6.20
2023-04-26T03:45:11.641Z,6.00
2023-04-26T03:47:38.295Z,6.10
2023-04-26T03:50:05.120Z,6.40
2023-04-26T03:52:31.697Z,6.10
2023-04-26T03:54:58.307Z,6.10
2023-04-26T03:57:24.877Z,6.10
2023-04-26T03:59:51.431Z,6.10
2023-04-26T04:02:18.130Z,6.10
2023-04-26T04:04:45.020Z,5.90
2023-04-26T04:07:11.738Z,5.90
2023-04-26T04:09:38.291Z,5.80
2023-04-26T04:12:04.967Z,5.90
2023-04-26T04:14:31.866Z,6.10
2023-04-26T04:16:59.568Z,6.00
2023-04-26T04:19:26.257Z,5.90
2023-04-26T04:21:52.847Z,6.00
2023-04-26T04:24:20.097Z,6.00
2023-04-26T04:26:47.166Z,6.10
2023-04-26T04:29:13.801Z,6.10
2023-04-26T04:31:41.578Z,6.00
2023-04-26T04:34:08.816Z,5.90
2023-04-26T04:36:35.438Z,5.90
2023-04-26T04:39:02.480Z,5.90
2023-04-26T04:41:29.115Z,5.90
2023-04-26T04:43:55.861Z,6.00
2023-04-26T04:46:22.633Z,5.90
2023-04-26T04:48:49.649Z,6.00
2023-04-26T04:51:16.522Z,6.20
2023-04-26T04:53:43.166Z,6.30
2023-04-26T04:56:09.831Z,6.20
2023-04-26T04:58:37.149Z,6.20
2023-04-26T05:01:03.725Z,6.20
2023-04-26T05:03:30.554Z,6.10
2023-04-26T05:05:57.333Z,6.10
2023-04-26T05:08:23.883Z,6.20
2023-04-26T05:10:50.640Z,6.20
2023-04-26T05:13:17.421Z,6.20
2023-04-26T05:15:44.020Z,6.30
2023-04-26T05:18:10.677Z,6.30
2023-04-26T05:20:37.408Z,6.40
2023-04-26T05:23:04.009Z,6.50
2023-04-26T05:25:30.712Z,6.40
2023-04-26T05:27:57.247Z,6.30
2023-04-26T05:30:23.887Z,6.50
2023-04-26T05:32:50.685Z,6.40
2023-04-26T05:35:17.355Z,6.60
2023-04-26T05:37:43.926Z,6.60
2023-04-26T05:40:12.303Z,6.70
2023-04-26T05:42:38.949Z,6.70
2023-04-26T05:45:05.774Z,6.90
2023-04-26T05:47:32.518Z,7.00
2023-04-26T05:49:59.106Z,7.00
2023-04-26T05:52:25.781Z,6.90
2023-04-26T05:54:52.342Z,7.00
2023-04-26T05:57:19.427Z,6.90
2023-04-26T05:59:46.453Z,7.00
2023-04-26T06:02:13.222Z,7.10
2023-04-26T06:04:39.985Z,7.30
2023-04-26T06:07:07.241Z,7.40
2023-04-26T06:09:33.936Z,7.60
2023-04-26T06:12:00.540Z,7.50
2023-04-26T06:14:30.797Z,7.70
2023-04-26T06:16:57.991Z,7.80
2023-04-26T06:19:24.756Z,7.80
2023-04-26T06:21:54.755Z,7.80
2023-04-26T06:24:21.471Z,7.90
2023-04-26T06:26:48.225Z,8.10
2023-04-26T06:29:14.894Z,8.20
2023-04-26T06:31:42.005Z,8.30
2023-04-26T06:34:08.745Z,8.50
2023-04-26T06:36:35.356Z,8.50
2023-04-26T06:39:01.938Z,8.50
2023-04-26T06:41:28.568Z,8.60
2023-04-26T06:43:55.723Z,8.70
2023-04-26T06:46:22.407Z,8.90
2023-04-26T06:48:49.083Z,8.90
2023-04-26T06:51:16.258Z,8.90
2023-04-26T06:53:43.029Z,8.90
2023-04-26T06:56:10.180Z,8.80
2023-04-26T06:58:36.880Z,9.00
2023-04-26T07:01:03.744Z,8.90
2023-04-26T07:03:30.986Z,8.90
2023-04-26T07:05:57.764Z,9.10
2023-04-26T07:08:24.334Z,9.10
2023-04-26T07:10:51.707Z,9.30
2023-04-26T07:13:18.345Z,9.40
2023-04-26T07:15:44.939Z,9.50
2023-04-26T07:18:12.109Z,9.50
2023-04-26T07:20:38.754Z,9.60
2023-04-26T07:23:05.428Z,9.60
2023-04-26T07:25:32.036Z,9.80
2023-04-26T07:27:58.707Z,9.80
2023-04-26T07:30:25.770Z,9.90
2023-04-26T07:32:53.246Z,9.90
2023-04-26T07:35:20.090Z,9.90
2023-04-26T07:37:46.830Z,10.10
2023-04-26T07:40:13.701Z,10.20
2023-04-26T07:42:40.340Z,10.40
2023-04-26T07:45:07.260Z,10.50
2023-04-26T07:47:33.885Z,10.50
2023-04-26T07:50:00.610Z,10.50
2023-04-26T07:52:27.248Z,10.50
2023-04-26T07:54:53.854Z,10.60
2023-04-26T07:57:20.461Z,10.70
2023-04-26T07:59:47.063Z,10.70
2023-04-26T08:02:13.861Z,10.60
2023-04-26T08:04:48.315Z,10.50
2023-04-26T08:07:15.209Z,10.40
2023-04-26T08:09:41.914Z,10.40
2023-04-26T08:12:08.657Z,10.30
2023-04-26T08:14:35.258Z,10.40
2023-04-26T08:17:02.023Z,10.40
2023-04-26T08:19:31.595Z,10.60
2023-04-26T08:21:58.540Z,10.70
2023-04-26T08:24:25.269Z,10.80
2023-04-26T08:26:51.926Z,10.80
2023-04-26T08:29:19.090Z,10.90
2023-04-26T08:31:45.983Z,11.10
2023-04-26T08:34:13.554Z,11.30
2023-04-26T08:36:43.466Z,11.40
2023-04-26T08:39:12.218Z,11.40
2023-04-26T08:41:43.429Z,11.40
2023-04-26T08:44:10.194Z,11.40
2023-04-26T08:46:41.349Z,11.40
2023-04-26T08:49:21.411Z,11.30
2023-04-26T08:51:48.803Z,11.30
2023-04-26T08:54:17.482Z,11.30
2023-04-26T08:56:44.332Z,11.30
2023-04-26T08:59:11.811Z,11.10
2023-04-26T09:01:39.677Z,11.20
2023-04-26T09:04:07.271Z,11.20
2023-04-26T09:06:34.436Z,11.20
2023-04-26T09:09:02.403Z,11.10
2023-04-26T09:11:28.993Z,11.00
2023-04-26T09:13:55.693Z,11.10
2023-04-26T09:16:34.723Z,11.30
2023-04-26T09:19:01.845Z,11.50
2023-04-26T09:21:29.952Z,11.40
2023-04-26T09:23:57.440Z,11.20
2023-04-26T09:26:24.044Z,11.00
2023-04-26T09:29:06.583Z,11.00
2023-04-26T09:31:39.463Z,10.90
2023-04-26T09:34:06.383Z,11.30
2023-04-26T09:36:33.086Z,11.30
2023-04-26T09:38:59.945Z,11.60
2023-04-26T09:41:42.033Z,11.70
2023-04-26T09:44:20.261Z,11.70
2023-04-26T09:46:57.315Z,11.90
2023-04-26T09:49:25.492Z,12.10
2023-04-26T09:52:02.283Z,11.90
2023-04-26T09:54:43.233Z,11.70
2023-04-26T09:57:10.518Z,11.40
2023-04-26T09:59:40.986Z,11.40
2023-04-26T10:02:18.551Z,11.60
2023-04-26T10:04:47.707Z,11.70
2023-04-26T10:07:15.957Z,11.50
2023-04-26T10:09:42.684Z,11.50
2023-04-26T10:12:10.542Z,11.40
2023-04-26T10:14:37.150Z,11.10
2023-04-26T10:17:04.935Z,11.00
2023-04-26T10:19:35.963Z,10.80
2023-04-26T10:22:05.774Z,10.80
2023-04-26T10:24:32.469Z,10.70
2023-04-26T10:26:59.576Z,10.70
2023-04-26T10:29:46.134Z,10.70
2023-04-26T10:32:17.190Z,10.70
2023-04-26T10:34:45.370Z,10.70
2023-04-26T10:37:12.114Z,10.90
2023-04-26T10:39:39.593Z,11.60
2023-04-26T10:42:26.568Z,12.90
2023-04-26T10:44:56.990Z,13.20
2023-04-26T10:47:23.942Z,13.20
2023-04-26T10:49:51.667Z,12.90
2023-04-26T10:52:20.349Z,12.40
2023-04-26T10:54:51.199Z,12.20
2023-04-26T10:57:18.343Z,12.10
2023-04-26T11:00:05.780Z,12.10
2023-04-26T11:02:44.571Z,12.20
2023-04-26T11:05:11.661Z,12.10
2023-04-26T11:07:38.728Z,12.10
2023-04-26T11:10:10.186Z,12.20
2023-04-26T11:12:36.934Z,12.60
2023-04-26T11:15:03.693Z,13.40
2023-04-26T11:17:36.612Z,14.60
2023-04-26T11:20:07.268Z,14.70
2023-04-26T11:22:34.786Z,14.80
2023-04-26T11:25:01.382Z,14.70
2023-04-26T11:27:28.252Z,14.30
2023-04-26T11:29:54.927Z,13.90
2023-04-26T11:32:21.477Z,13.60
2023-04-26T11:34:50.720Z,13.60
2023-04-26T11:37:17.761Z,13.40
2023-04-26T11:39:45.073Z,13.70
2023-04-26T11:42:12.519Z,14.10
2023-04-26T11:44:39.886Z,14.20
2023-04-26T11:47:07.163Z,14.90
2023-04-26T11:49:35.576Z,15.80
2023-04-26T11:52:02.761Z,17.40
2023-04-26T11:54:30.212Z,18.70
2023-04-26T11:56:59.985Z,19.90
2023-04-26T11:59:27.679Z,20.40
2023-04-26T12:01:55.054Z,20.20
2023-04-26T12:04:30.363Z,18.70
2023-04-26T12:06:57.713Z,17.50
2023-04-26T12:09:24.689Z,16.60
2023-04-26T12:12:00.943Z,15.90
2023-04-26T12:14:31.393Z,15.60
2023-04-26T12:17:03.076Z,15.40
2023-04-26T12:19:33.277Z,15.20
2023-04-26T12:21:59.867Z,14.80
2023-04-26T12:24:30.182Z,14.40
2023-04-26T12:26:56.892Z,14.40
2023-04-26T12:29:23.887Z,14.30
2023-04-26T12:31:50.519Z,14.90
2023-04-26T12:34:17.145Z,16.00
2023-04-26T12:36:44.519Z,17.70
2023-04-26T12:39:13.243Z,18.70
2023-04-26T12:41:40.801Z,19.20
2023-04-26T12:44:10.507Z,19.10
2023-04-26T12:46:37.222Z,18.30
2023-04-26T12:49:03.953Z,17.60
2023-04-26T12:51:31.981Z,16.80
2023-04-26T12:53:58.751Z,16.50
2023-04-26T12:56:25.503Z,16.30
2023-04-26T12:58:52.203Z,15.90
2023-04-26T13:01:18.956Z,15.60
2023-04-26T13:03:46.125Z,15.50
2023-04-26T13:06:13.086Z,15.60
2023-04-26T13:08:39.874Z,15.40
2023-04-26T13:11:06.506Z,15.30
2023-04-26T13:13:43.113Z,15.40
2023-04-26T13:16:12.330Z,15.40
2023-04-26T13:18:39.714Z,15.00
2023-04-26T13:21:06.566Z,14.60
2023-04-26T13:23:33.175Z,14.20
2023-04-26T13:25:59.836Z,13.90
2023-04-26T13:28:26.441Z,13.80
2023-04-26T13:30:53.345Z,13.70
2023-04-26T13:33:21.122Z,13.60
2023-04-26T13:35:48.272Z,13.50
2023-04-26T13:38:15.952Z,13.10
2023-04-26T13:40:43.120Z,13.00
2023-04-26T13:43:09.799Z,12.90
2023-04-26T13:45:36.770Z,12.80
2023-04-26T13:48:03.911Z,13.00
2023-04-26T13:50:30.686Z,13.30
2023-04-26T13:52:57.404Z,13.50
2023-04-26T13:55:24.154Z,13.50
2023-04-26T13:57:50.925Z,13.50
2023-04-26T14:00:17.724Z,13.40
2023-04-26T14:02:44.615Z,13.20
2023-04-26T14:05:11.698Z,13.20
2023-04-26T14:07:38.373Z,13.10
2023-04-26T14:10:05.123Z,13.20
2023-04-26T14:12:31.744Z,13.50
2023-04-26T14:14:58.389Z,13.80
2023-04-26T14:17:25.667Z,13.90
2023-04-26T14:19:54.804Z,13.90
2023-04-26T14:22:21.602Z,13.70
2023-04-26T14:24:48.959Z,13.60
2023-04-26T14:27:15.627Z,13.50
2023-04-26T14:29:42.233Z,13.60
2023-04-26T14:32:08.893Z,13.50
2023-04-26T14:34:39.898Z,13.30
2023-04-26T14:37:06.790Z,13.20
2023-04-26T14:39:33.595Z,13.20
2023-04-26T14:42:00.550Z,13.20
2023-04-26T14:44:27.301Z,13.30
2023-04-26T14:46:53.929Z,13.00
2023-04-26T14:49:20.681Z,13.00
2023-04-26T14:51:47.403Z,12.70
2023-04-26T14:54:15.210Z,12.60
2023-04-26T14:56:42.204Z,12.60
2023-04-26T14:59:08.796Z,12.90
2023-04-26T15:01:35.509Z,13.40
2023-04-26T15:04:02.400Z,13.50
2023-04-26T15:06:30.744Z,13.40
2023-04-26T15:08:57.398Z,14.20
2023-04-26T15:11:23.963Z,14.80
2023-04-26T15:13:50.603Z,14.70
2023-04-26T15:16:17.402Z,14.30
2023-04-26T15:18:44.210Z,14.00
2023-04-26T15:21:15.724Z,13.70
2023-04-26T15:23:42.289Z,13.60
2023-04-26T15:26:09.098Z,13.50
2023-04-26T15:28:35.843Z,13.40
2023-04-26T15:31:05.957Z,13.30
2023-04-26T15:33:32.863Z,13.20
2023-04-26T15:35:59.455Z,13.20
2023-04-26T15:38:26.074Z,13.10
2023-04-26T15:40:53.709Z,12.90
2023-04-26T15:43:20.487Z,12.80
2023-04-26T15:45:48.853Z,12.70
2023-04-26T15:48:15.728Z,12.60
2023-04-26T15:50:42.304Z,12.60
2023-04-26T15:53:09.198Z,12.50
2023-04-26T15:55:35.787Z,12.40
2023-04-26T15:58:02.502Z,12.30
2023-04-26T16:00:29.298Z,12.20
2023-04-26T16:02:56.634Z,12.10
2023-04-26T16:05:23.360Z,12.00
2023-04-26T16:07:49.974Z,12.00
2023-04-26T16:10:16.993Z,12.00
2023-04-26T16:12:44.716Z,12.00
2023-04-26T16:15:11.484Z,11.90
2023-04-26T16:17:39.285Z,11.80
2023-04-26T16:20:07.081Z,11.90
2023-04-26T16:22:34.618Z,11.80
2023-04-26T16:25:01.569Z,11.90
2023-04-26T16:27:28.319Z,11.90
2023-04-26T16:29:54.965Z,11.90
2023-04-26T16:32:21.914Z,11.90
2023-04-26T16:34:48.549Z,12.00
2023-04-26T16:37:15.165Z,11.90
2023-04-26T16:39:41.756Z,11.80
2023-04-26T16:42:08.637Z,11.80
2023-04-26T16:44:35.326Z,11.90
2023-04-26T16:47:02.233Z,11.90
2023-04-26T16:49:28.869Z,11.90
2023-04-26T16:51:58.825Z,12.00
2023-04-26T16:54:26.189Z,12.00
2023-04-26T16:56:52.996Z,12.00
2023-04-26T16:59:19.867Z,12.00
2023-04-26T17:01:47.317Z,11.90
2023-04-26T17:04:14.353Z,11.80
2023-04-26T17:06:41.169Z,11.80
2023-04-26T17:09:08.656Z,11.90
2023-04-26T17:11:37.237Z,11.90
2023-04-26T17:14:04.436Z,11.90
2023-04-26T17:16:31.686Z,11.80
2023-04-26T17:18:58.470Z,11.70
2023-04-26T17:21:25.397Z,11.70
2023-04-26T17:23:52.304Z,11.70
2023-04-26T17:26:19.084Z,11.70
2023-04-26T17:28:45.791Z,11.60
2023-04-26T17:31:12.380Z,11.60
2023-04-26T17:33:39.021Z,11.60
2023-04-26T17:36:06.234Z,11.60
2023-04-26T17:38:32.895Z,11.50
2023-04-26T17:40:59.717Z,11.60
2023-04-26T17:43:26.323Z,11.50
2023-04-26T17:45:53.118Z,11.50
2023-04-26T17:48:19.896Z,11.40
2023-04-26T17:50:46.556Z,11.40
2023-04-26T17:53:13.412Z,11.40
2023-04-26T17:55:40.516Z,11.40
2023-04-26T17:58:07.301Z,11.30
2023-04-26T18:00:34.084Z,11.30
2023-04-26T18:03:03.095Z,11.10
2023-04-26T18:05:29.880Z,11.10
2023-04-26T18:07:56.588Z,11.10
2023-04-26T18:10:23.307Z,11.10
2023-04-26T18:12:49.917Z,11.00
2023-04-26T18:15:16.582Z,11.10
2023-04-26T18:17:43.642Z,11.10
2023-04-26T18:20:11.973Z,11.10
2023-04-26T18:22:38.868Z,11.10
2023-04-26T18:25:05.702Z,11.00
2023-04-26T18:27:32.359Z,11.10
2023-04-26T18:29:58.938Z,10.90
2023-04-26T18:32:25.703Z,10.90
2023-04-26T18:34:52.349Z,10.80
2023-04-26T18:37:19.222Z,10.70
2023-04-26T18:39:46.112Z,10.70
2023-04-26T18:42:12.758Z,10.60
2023-04-26T18:44:39.344Z,10.60
2023-04-26T18:47:06.128Z,10.60
2023-04-26T18:49:32.828Z,10.70
2023-04-26T18:51:59.483Z,10.70
2023-04-26T18:54:26.335Z,10.70
2023-04-26T18:56:53.940Z,10.70
2023-04-26T18:59:20.552Z,10.70
2023-04-26T19:01:47.269Z,10.70
2023-04-26T19:04:14.124Z,10.70
2023-04-26T19:06:41.526Z,10.70
2023-04-26T19:09:11.617Z,10.70
2023-04-26T19:11:38.372Z,10.70
2023-04-26T19:14:04.979Z,10.80
2023-04-26T19:16:31.907Z,10.90
2023-04-26T19:18:58.750Z,10.90
2023-04-26T19:21:25.392Z,10.70
2023-04-26T19:23:51.977Z,10.70
2023-04-26T19:26:18.548Z,10.70
2023-04-26T19:28:45.225Z,10.70
2023-04-26T19:31:11.781Z,10.70
2023-04-26T19:33:38.453Z,10.80
2023-04-26T19:36:05.113Z,10.70
2023-04-26T19:38:31.790Z,10.70
2023-04-26T19:40:58.391Z,10.70
2023-04-26T19:43:25.025Z,10.80
2023-04-26T19:45:51.643Z,10.80
2023-04-26T19:48:18.297Z,10.70
2023-04-26T19:50:46.224Z,10.60
2023-04-26T19:53:13.675Z,10.70
2023-04-26T19:55:40.974Z,10.70
2023-04-26T19:58:08.081Z,8.40
2023-04-26T20:00:38.552Z,10.70
2023-04-26T20:03:05.928Z,10.60
2023-04-26T20:05:33.521Z,10.60
2023-04-26T20:08:00.486Z,10.60
2023-04-26T20:10:30.056Z,10.60
2023-04-26T20:12:56.734Z,10.50
2023-04-26T20:15:24.189Z,10.60
2023-04-26T20:17:50.912Z,10.60
2023-04-26T20:20:17.788Z,10.60
2023-04-26T20:22:44.415Z,10.60
2023-04-26T20:25:11.169Z,10.70
2023-04-26T20:27:38.066Z,10.60
2023-04-26T20:30:04.988Z,10.50
2023-04-26T20:32:31.588Z,10.40
2023-04-26T20:34:58.332Z,10.50
2023-04-26T20:37:24.968Z,10.50
2023-04-26T20:39:51.583Z,10.50
2023-04-26T20:42:18.248Z,10.40
2023-04-26T20:44:44.871Z,10.40
2023-04-26T20:47:11.528Z,10.40
2023-04-26T20:49:38.217Z,10.40
2023-04-26T20:52:05.088Z,10.50
2023-04-26T20:54:32.036Z,10.40
2023-04-26T20:56:58.654Z,10.40
2023-04-26T20:59:25.675Z,10.40
2023-04-26T21:01:52.878Z,10.40
2023-04-26T21:04:19.773Z,10.50
2023-04-26T21:06:46.617Z,10.40
2023-04-26T21:09:13.463Z,10.30
2023-04-26T21:11:40.136Z,10.20
2023-04-26T21:14:07.159Z,10.20
2023-04-26T21:16:33.841Z,10.20
2023-04-26T21:19:00.707Z,10.30
2023-04-26T21:21:28.617Z,10.40
2023-04-26T21:23:55.413Z,10.30
2023-04-26T21:26:21.995Z,10.30
2023-04-26T21:28:48.698Z,10.30
2023-04-26T21:31:15.784Z,10.20
2023-04-26T21:33:42.465Z,10.30
2023-04-26T21:36:09.186Z,10.30
2023-04-26T21:38:35.929Z,10.20
2023-04-26T21:41:02.580Z,10.10
2023-04-26T21:43:29.292Z,10.20
2023-04-26T21:45:56.391Z,10.20
2023-04-26T21:48:23.035Z,10.20
2023-04-26T21:50:49.972Z,10.20
2023-04-26T21:53:16.717Z,10.20
2023-04-26T21:55:43.422Z,10.20
2023-04-26T21:58:10.032Z,10.20
2023-04-26T22:00:36.729Z,10.20
2023-04-26T22:03:03.519Z,10.20
2023-04-26T22:05:30.244Z,10.20
2023-04-26T22:07:57.104Z,10.20
2023-04-26T22:10:23.729Z,10.20
2023-04-26T22:12:50.374Z,10.20
2023-04-26T22:15:16.991Z,10.20
2023-04-26T22:17:43.660Z,10.20
2023-04-26T22:20:10.932Z,10.10
2023-04-26T22:22:37.520Z,10.00
2023-04-26T22:25:04.377Z,9.90
2023-04-26T22:27:31.640Z,9.90
2023-04-26T22:30:02.125Z,10.00
2023-04-26T22:32:33.025Z,10.10
2023-04-26T22:34:59.695Z,10.00
2023-04-26T22:37:26.262Z,9.90
2023-04-26T22:39:53.464Z,9.90
2023-04-26T22:42:20.177Z,10.00
2023-04-26T22:44:46.844Z,10.00
2023-04-26T22:47:13.465Z,10.00
2023-04-26T22:49:40.048Z,10.00
2023-04-26T22:52:14.227Z,10.00
2023-04-26T22:54:46.904Z,9.80
2023-04-26T22:57:13.499Z,9.70
2023-04-26T22:59:40.113Z,9.80
2023-04-26T23:02:07.122Z,9.90
2023-04-26T23:04:33.898Z,9.90
2023-04-26T23:07:00.732Z,9.80
2023-04-26T23:09:27.298Z,9.80
2023-04-26T23:11:53.889Z,9.80
2023-04-26T23:14:20.490Z,9.80
2023-04-26T23:16:47.160Z,9.80
2023-04-26T23:19:14.210Z,9.70
2023-04-26T23:21:41.423Z,9.70
2023-04-26T23:24:08.084Z,9.70
2023-04-26T23:26:34.698Z,9.70
2023-04-26T23:29:01.325Z,9.70
2023-04-26T23:31:28.033Z,9.70
2023-04-26T23:33:54.661Z,9.80
2023-04-26T23:36:21.253Z,9.80
2023-04-26T23:38:47.859Z,9.90
2023-04-26T23:41:14.436Z,9.80
2023-04-26T23:43:41.030Z,9.70
2023-04-26T23:46:07.771Z,9.50
2023-04-26T23:48:34.408Z,9.60
2023-04-26T23:51:01.546Z,9.70
2023-04-26T23:53:28.140Z,9.80
2023-04-26T23:55:54.722Z,9.80
2023-04-26T23:58:21.824Z,9.80
